sensor_id;sensor_type;location;lat;lon;timestamp;P1;durP1;ratioP1;P2;durP2;ratioP2
33491;SDS011;20010;51.488;7.232;2022-12-07T00:01:16;34.33;;;28.60;;
33491;SDS011;20010;51.488;7.232;2022-12-07T00:03:48;36.05;;;26.63;;
33491;SDS011;20010;51.488;7.232;2022-12-07T00:06:16;33.33;;;27.73;;
33491;SDS011;20010;51.488;7.232;2022-12-07T00:08:44;32.22;;;26.50;;
33491;SDS011;20010;51.488;7.232;2022-12-07T00:11:12;32.70;;;27.02;;
33491;SDS011;20010;51.488;7.232;2022-12-07T00:13:50;34.08;;;26.20;;
33491;SDS011;20010;51.488;7.232;2022-12-07T00:16:23;31.02;;;26.35;;
33491;SDS011;20010;51.488;7.232;2022-12-07T00:18:51;33.17;;;24.92;;
33491;SDS011;20010;51.488;7.232;2022-12-07T00:21:20;28.77;;;25.17;;
33491;SDS011;20010;51.488;7.232;2022-12-07T00:23:49;28.85;;;23.50;;
33491;SDS011;20010;51.488;7.232;2022-12-07T00:26:22;30.98;;;24.40;;
33491;SDS011;20010;51.488;7.232;2022-12-07T00:28:52;30.10;;;23.13;;
33491;SDS011;20010;51.488;7.232;2022-12-07T00:31:21;28.80;;;24.15;;
33491;SDS011;20010;51.488;7.232;2022-12-07T00:33:51;26.55;;;21.90;;
33491;SDS011;20010;51.488;7.232;2022-12-07T00:36:19;26.88;;;22.55;;
33491;SDS011;20010;51.488;7.232;2022-12-07T00:38:52;30.17;;;24.33;;
33491;SDS011;20010;51.488;7.232;2022-12-07T00:41:21;30.40;;;23.80;;
33491;SDS011;20010;51.488;7.232;2022-12-07T00:43:50;29.65;;;23.30;;
33491;SDS011;20010;51.488;7.232;2022-12-07T00:46:17;27.58;;;23.60;;
33491;SDS011;20010;51.488;7.232;2022-12-07T00:48:45;29.20;;;23.27;;
33491;SDS011;20010;51.488;7.232;2022-12-07T00:51:13;23.90;;;21.30;;
33491;SDS011;20010;51.488;7.232;2022-12-07T00:53:41;27.58;;;22.92;;
33491;SDS011;20010;51.488;7.232;2022-12-07T00:56:15;30.95;;;23.42;;
33491;SDS011;20010;51.488;7.232;2022-12-07T00:58:57;26.50;;;23.08;;
33491;SDS011;20010;51.488;7.232;2022-12-07T01:01:29;30.85;;;24.20;;
33491;SDS011;20010;51.488;7.232;2022-12-07T01:03:58;30.08;;;23.60;;
33491;SDS011;20010;51.488;7.232;2022-12-07T01:06:27;28.02;;;23.00;;
33491;SDS011;20010;51.488;7.232;2022-12-07T01:08:55;33.13;;;24.33;;
33491;SDS011;20010;51.488;7.232;2022-12-07T01:11:24;30.17;;;24.08;;
33491;SDS011;20010;51.488;7.232;2022-12-07T01:13:53;28.02;;;24.45;;
33491;SDS011;20010;51.488;7.232;2022-12-07T01:16:21;29.20;;;24.08;;
33491;SDS011;20010;51.488;7.232;2022-12-07T01:18:50;31.23;;;26.02;;
33491;SDS011;20010;51.488;7.232;2022-12-07T01:21:26;35.13;;;25.27;;
33491;SDS011;20010;51.488;7.232;2022-12-07T01:23:56;30.30;;;24.52;;
33491;SDS011;20010;51.488;7.232;2022-12-07T01:26:24;31.45;;;26.50;;
33491;SDS011;20010;51.488;7.232;2022-12-07T01:28:51;29.70;;;24.88;;
33491;SDS011;20010;51.488;7.232;2022-12-07T01:31:22;31.80;;;25.90;;
33491;SDS011;20010;51.488;7.232;2022-12-07T01:33:55;30.98;;;27.40;;
33491;SDS011;20010;51.488;7.232;2022-12-07T01:36:27;30.38;;;26.17;;
33491;SDS011;20010;51.488;7.232;2022-12-07T01:39:03;35.15;;;26.90;;
33491;SDS011;20010;51.488;7.232;2022-12-07T01:41:32;36.60;;;26.75;;
33491;SDS011;20010;51.488;7.232;2022-12-07T01:47:00;33.25;;;26.75;;
33491;SDS011;20010;51.488;7.232;2022-12-07T01:54:38;35.38;;;27.80;;
33491;SDS011;20010;51.488;7.232;2022-12-07T01:57:05;30.17;;;25.80;;
33491;SDS011;20010;51.488;7.232;2022-12-07T01:59:34;36.88;;;27.83;;
33491;SDS011;20010;51.488;7.232;2022-12-07T02:02:01;29.67;;;26.48;;
33491;SDS011;20010;51.488;7.232;2022-12-07T02:04:31;34.45;;;26.48;;
33491;SDS011;20010;51.488;7.232;2022-12-07T02:06:58;33.00;;;27.42;;
33491;SDS011;20010;51.488;7.232;2022-12-07T02:09:26;31.98;;;27.20;;
33491;SDS011;20010;51.488;7.232;2022-12-07T02:11:52;31.20;;;27.27;;
33491;SDS011;20010;51.488;7.232;2022-12-07T02:14:21;32.90;;;26.30;;
33491;SDS011;20010;51.488;7.232;2022-12-07T02:19:31;30.95;;;27.10;;
33491;SDS011;20010;51.488;7.232;2022-12-07T02:24:48;35.85;;;27.30;;
33491;SDS011;20010;51.488;7.232;2022-12-07T02:27:46;33.72;;;27.75;;
33491;SDS011;20010;51.488;7.232;2022-12-07T02:33:04;35.15;;;27.15;;
33491;SDS011;20010;51.488;7.232;2022-12-07T02:35:43;35.63;;;27.05;;
33491;SDS011;20010;51.488;7.232;2022-12-07T02:38:29;32.65;;;27.30;;
33491;SDS011;20010;51.488;7.232;2022-12-07T02:41:04;31.85;;;26.70;;
33491;SDS011;20010;51.488;7.232;2022-12-07T02:43:38;29.83;;;26.65;;
33491;SDS011;20010;51.488;7.232;2022-12-07T02:46:14;32.78;;;25.70;;
33491;SDS011;20010;51.488;7.232;2022-12-07T02:48:43;31.20;;;25.10;;
33491;SDS011;20010;51.488;7.232;2022-12-07T02:51:12;32.00;;;25.10;;
33491;SDS011;20010;51.488;7.232;2022-12-07T02:53:41;30.10;;;25.05;;
33491;SDS011;20010;51.488;7.232;2022-12-07T03:02:15;30.10;;;25.50;;
33491;SDS011;20010;51.488;7.232;2022-12-07T03:16:31;27.60;;;23.20;;
33491;SDS011;20010;51.488;7.232;2022-12-07T03:19:13;32.30;;;25.02;;
33491;SDS011;20010;51.488;7.232;2022-12-07T03:21:47;27.90;;;24.33;;
33491;SDS011;20010;51.488;7.232;2022-12-07T03:24:21;31.08;;;24.35;;
33491;SDS011;20010;51.488;7.232;2022-12-07T03:26:53;29.90;;;24.47;;
33491;SDS011;20010;51.488;7.232;2022-12-07T03:29:35;28.05;;;24.05;;
33491;SDS011;20010;51.488;7.232;2022-12-07T03:32:14;28.48;;;23.15;;
33491;SDS011;20010;51.488;7.232;2022-12-07T03:35:09;34.00;;;25.63;;
33491;SDS011;20010;51.488;7.232;2022-12-07T03:40:33;28.05;;;22.67;;
33491;SDS011;20010;51.488;7.232;2022-12-07T03:43:05;34.83;;;24.95;;
33491;SDS011;20010;51.488;7.232;2022-12-07T03:45:37;31.70;;;23.33;;
33491;SDS011;20010;51.488;7.232;2022-12-07T03:48:08;26.98;;;23.52;;
33491;SDS011;20010;51.488;7.232;2022-12-07T03:50:55;37.05;;;27.17;;
33491;SDS011;20010;51.488;7.232;2022-12-07T03:56:06;24.30;;;21.17;;
33491;SDS011;20010;51.488;7.232;2022-12-07T03:58:35;33.85;;;26.55;;
33491;SDS011;20010;51.488;7.232;2022-12-07T04:01:04;27.98;;;22.73;;
33491;SDS011;20010;51.488;7.232;2022-12-07T04:03:31;34.08;;;26.23;;
33491;SDS011;20010;51.488;7.232;2022-12-07T04:05:57;30.05;;;23.10;;
33491;SDS011;20010;51.488;7.232;2022-12-07T04:08:25;34.65;;;24.83;;
33491;SDS011;20010;51.488;7.232;2022-12-07T04:10:52;29.17;;;22.55;;
33491;SDS011;20010;51.488;7.232;2022-12-07T04:13:18;26.73;;;21.80;;
33491;SDS011;20010;51.488;7.232;2022-12-07T04:15:45;35.63;;;26.77;;
33491;SDS011;20010;51.488;7.232;2022-12-07T04:18:12;25.95;;;22.80;;
33491;SDS011;20010;51.488;7.232;2022-12-07T04:20:39;27.23;;;22.58;;
33491;SDS011;20010;51.488;7.232;2022-12-07T04:23:06;32.75;;;24.15;;
33491;SDS011;20010;51.488;7.232;2022-12-07T04:25:33;30.48;;;24.10;;
33491;SDS011;20010;51.488;7.232;2022-12-07T04:27:59;36.20;;;26.42;;
33491;SDS011;20010;51.488;7.232;2022-12-07T04:30:26;26.33;;;23.38;;
33491;SDS011;20010;51.488;7.232;2022-12-07T04:32:53;37.22;;;26.10;;
33491;SDS011;20010;51.488;7.232;2022-12-07T04:35:20;37.63;;;25.80;;
33491;SDS011;20010;51.488;7.232;2022-12-07T04:37:47;32.58;;;24.33;;
33491;SDS011;20010;51.488;7.232;2022-12-07T04:40:13;32.13;;;22.10;;
33491;SDS011;20010;51.488;7.232;2022-12-07T04:42:40;33.83;;;23.17;;
33491;SDS011;20010;51.488;7.232;2022-12-07T04:45:07;32.92;;;22.35;;
33491;SDS011;20010;51.488;7.232;2022-12-07T04:47:34;38.10;;;24.50;;
33491;SDS011;20010;51.488;7.232;2022-12-07T04:50:01;30.50;;;22.05;;
33491;SDS011;20010;51.488;7.232;2022-12-07T04:52:29;41.38;;;25.20;;
33491;SDS011;20010;51.488;7.232;2022-12-07T04:54:56;27.05;;;21.25;;
33491;SDS011;20010;51.488;7.232;2022-12-07T04:57:23;32.83;;;22.95;;
33491;SDS011;20010;51.488;7.232;2022-12-07T04:59:50;36.90;;;24.80;;
33491;SDS011;20010;51.488;7.232;2022-12-07T05:02:16;27.90;;;21.88;;
33491;SDS011;20010;51.488;7.232;2022-12-07T05:04:43;29.48;;;20.83;;
33491;SDS011;20010;51.488;7.232;2022-12-07T05:07:10;37.25;;;23.70;;
33491;SDS011;20010;51.488;7.232;2022-12-07T05:09:37;29.20;;;21.05;;
33491;SDS011;20010;51.488;7.232;2022-12-07T05:12:03;26.75;;;22.70;;
33491;SDS011;20010;51.488;7.232;2022-12-07T05:14:30;33.85;;;25.38;;
33491;SDS011;20010;51.488;7.232;2022-12-07T05:16:57;30.95;;;23.13;;
33491;SDS011;20010;51.488;7.232;2022-12-07T05:19:24;27.13;;;20.90;;
33491;SDS011;20010;51.488;7.232;2022-12-07T05:21:52;34.67;;;23.65;;
33491;SDS011;20010;51.488;7.232;2022-12-07T05:24:19;28.67;;;21.33;;
33491;SDS011;20010;51.488;7.232;2022-12-07T05:26:45;29.30;;;21.75;;
33491;SDS011;20010;51.488;7.232;2022-12-07T05:29:13;28.95;;;20.77;;
33491;SDS011;20010;51.488;7.232;2022-12-07T05:31:41;34.85;;;23.88;;
33491;SDS011;20010;51.488;7.232;2022-12-07T05:34:08;30.15;;;22.95;;
33491;SDS011;20010;51.488;7.232;2022-12-07T05:36:35;26.88;;;21.38;;
33491;SDS011;20010;51.488;7.232;2022-12-07T05:39:02;34.65;;;22.63;;
33491;SDS011;20010;51.488;7.232;2022-12-07T05:41:29;28.77;;;21.10;;
33491;SDS011;20010;51.488;7.232;2022-12-07T05:44:15;36.58;;;24.27;;
33491;SDS011;20010;51.488;7.232;2022-12-07T05:46:43;37.63;;;23.30;;
33491;SDS011;20010;51.488;7.232;2022-12-07T05:49:09;43.35;;;25.10;;
33491;SDS011;20010;51.488;7.232;2022-12-07T05:51:36;37.92;;;24.23;;
33491;SDS011;20010;51.488;7.232;2022-12-07T05:54:03;38.55;;;25.20;;
33491;SDS011;20010;51.488;7.232;2022-12-07T05:56:30;36.85;;;23.75;;
33491;SDS011;20010;51.488;7.232;2022-12-07T05:58:57;27.33;;;21.83;;
33491;SDS011;20010;51.488;7.232;2022-12-07T06:01:42;36.17;;;23.08;;
33491;SDS011;20010;51.488;7.232;2022-12-07T06:04:09;28.20;;;19.83;;
33491;SDS011;20010;51.488;7.232;2022-12-07T06:06:36;36.28;;;25.23;;
33491;SDS011;20010;51.488;7.232;2022-12-07T06:09:03;31.15;;;21.58;;
33491;SDS011;20010;51.488;7.232;2022-12-07T06:11:30;30.65;;;20.45;;
33491;SDS011;20010;51.488;7.232;2022-12-07T06:14:15;32.17;;;19.80;;
33491;SDS011;20010;51.488;7.232;2022-12-07T06:16:42;35.92;;;23.13;;
33491;SDS011;20010;51.488;7.232;2022-12-07T06:19:09;30.23;;;20.30;;
33491;SDS011;20010;51.488;7.232;2022-12-07T06:21:36;35.92;;;21.77;;
33491;SDS011;20010;51.488;7.232;2022-12-07T06:24:02;27.23;;;19.27;;
33491;SDS011;20010;51.488;7.232;2022-12-07T06:26:29;25.30;;;18.15;;
33491;SDS011;20010;51.488;7.232;2022-12-07T06:28:56;24.33;;;18.92;;
33491;SDS011;20010;51.488;7.232;2022-12-07T06:31:23;20.55;;;17.35;;
33491;SDS011;20010;51.488;7.232;2022-12-07T06:33:50;35.33;;;19.75;;
33491;SDS011;20010;51.488;7.232;2022-12-07T06:36:17;24.17;;;17.90;;
33491;SDS011;20010;51.488;7.232;2022-12-07T06:38:52;24.13;;;18.33;;
33491;SDS011;20010;51.488;7.232;2022-12-07T06:41:19;24.67;;;18.08;;
33491;SDS011;20010;51.488;7.232;2022-12-07T06:43:46;25.77;;;18.30;;
33491;SDS011;20010;51.488;7.232;2022-12-07T06:46:21;27.02;;;18.80;;
33491;SDS011;20010;51.488;7.232;2022-12-07T06:48:48;25.65;;;18.23;;
33491;SDS011;20010;51.488;7.232;2022-12-07T06:51:15;32.72;;;19.77;;
33491;SDS011;20010;51.488;7.232;2022-12-07T06:53:42;26.65;;;17.52;;
33491;SDS011;20010;51.488;7.232;2022-12-07T06:56:08;26.55;;;17.80;;
33491;SDS011;20010;51.488;7.232;2022-12-07T06:58:36;21.08;;;16.50;;
33491;SDS011;20010;51.488;7.232;2022-12-07T07:01:03;24.85;;;16.48;;
33491;SDS011;20010;51.488;7.232;2022-12-07T07:03:35;25.20;;;18.67;;
33491;SDS011;20010;51.488;7.232;2022-12-07T07:06:02;23.60;;;15.68;;
33491;SDS011;20010;51.488;7.232;2022-12-07T07:08:29;29.05;;;17.20;;
33491;SDS011;20010;51.488;7.232;2022-12-07T07:10:56;26.63;;;15.35;;
33491;SDS011;20010;51.488;7.232;2022-12-07T07:13:22;30.30;;;17.65;;
33491;SDS011;20010;51.488;7.232;2022-12-07T07:15:49;18.75;;;14.88;;
33491;SDS011;20010;51.488;7.232;2022-12-07T07:18:16;23.20;;;16.73;;
33491;SDS011;20010;51.488;7.232;2022-12-07T07:20:43;29.20;;;17.48;;
33491;SDS011;20010;51.488;7.232;2022-12-07T07:23:10;24.10;;;15.73;;
33491;SDS011;20010;51.488;7.232;2022-12-07T07:25:38;22.08;;;15.75;;
33491;SDS011;20010;51.488;7.232;2022-12-07T07:28:05;24.55;;;16.35;;
33491;SDS011;20010;51.488;7.232;2022-12-07T07:30:31;22.13;;;14.18;;
33491;SDS011;20010;51.488;7.232;2022-12-07T07:32:59;23.33;;;16.40;;
33491;SDS011;20010;51.488;7.232;2022-12-07T07:35:27;20.55;;;14.07;;
33491;SDS011;20010;51.488;7.232;2022-12-07T07:37:55;15.90;;;14.25;;
33491;SDS011;20010;51.488;7.232;2022-12-07T07:40:22;24.52;;;14.63;;
33491;SDS011;20010;51.488;7.232;2022-12-07T07:42:50;18.65;;;14.00;;
33491;SDS011;20010;51.488;7.232;2022-12-07T07:45:18;22.63;;;15.00;;
33491;SDS011;20010;51.488;7.232;2022-12-07T07:47:48;24.90;;;14.90;;
33491;SDS011;20010;51.488;7.232;2022-12-07T07:50:16;21.10;;;14.55;;
33491;SDS011;20010;51.488;7.232;2022-12-07T07:52:44;13.82;;;12.27;;
33491;SDS011;20010;51.488;7.232;2022-12-07T07:55:11;26.27;;;14.32;;
33491;SDS011;20010;51.488;7.232;2022-12-07T07:57:39;15.50;;;12.10;;
33491;SDS011;20010;51.488;7.232;2022-12-07T08:00:07;29.00;;;16.60;;
33491;SDS011;20010;51.488;7.232;2022-12-07T08:02:36;14.82;;;12.20;;
33491;SDS011;20010;51.488;7.232;2022-12-07T08:05:03;18.55;;;13.23;;
33491;SDS011;20010;51.488;7.232;2022-12-07T08:07:30;21.00;;;14.25;;
33491;SDS011;20010;51.488;7.232;2022-12-07T08:09:57;19.00;;;13.00;;
33491;SDS011;20010;51.488;7.232;2022-12-07T08:12:24;15.73;;;11.85;;
33491;SDS011;20010;51.488;7.232;2022-12-07T08:14:51;15.93;;;12.70;;
33491;SDS011;20010;51.488;7.232;2022-12-07T08:17:18;18.95;;;12.82;;
33491;SDS011;20010;51.488;7.232;2022-12-07T08:19:44;18.75;;;13.10;;
33491;SDS011;20010;51.488;7.232;2022-12-07T08:22:11;21.67;;;13.73;;
33491;SDS011;20010;51.488;7.232;2022-12-07T08:24:38;28.88;;;14.02;;
33491;SDS011;20010;51.488;7.232;2022-12-07T08:27:05;20.98;;;12.60;;
33491;SDS011;20010;51.488;7.232;2022-12-07T08:29:32;23.73;;;14.63;;
33491;SDS011;20010;51.488;7.232;2022-12-07T08:31:58;18.35;;;12.57;;
33491;SDS011;20010;51.488;7.232;2022-12-07T08:34:34;21.05;;;12.82;;
33491;SDS011;20010;51.488;7.232;2022-12-07T08:37:02;19.25;;;13.35;;
33491;SDS011;20010;51.488;7.232;2022-12-07T08:39:29;22.23;;;12.35;;
33491;SDS011;20010;51.488;7.232;2022-12-07T08:41:57;21.23;;;14.00;;
33491;SDS011;20010;51.488;7.232;2022-12-07T08:44:24;19.52;;;13.48;;
33491;SDS011;20010;51.488;7.232;2022-12-07T08:46:58;18.40;;;11.98;;
33491;SDS011;20010;51.488;7.232;2022-12-07T08:49:36;29.27;;;14.23;;
33491;SDS011;20010;51.488;7.232;2022-12-07T08:52:09;15.55;;;11.70;;
33491;SDS011;20010;51.488;7.232;2022-12-07T08:54:38;17.73;;;12.63;;
33491;SDS011;20010;51.488;7.232;2022-12-07T08:57:07;19.20;;;11.68;;
33491;SDS011;20010;51.488;7.232;2022-12-07T08:59:34;18.20;;;13.10;;
33491;SDS011;20010;51.488;7.232;2022-12-07T09:02:03;13.57;;;11.48;;
33491;SDS011;20010;51.488;7.232;2022-12-07T09:04:32;16.42;;;10.95;;
33491;SDS011;20010;51.488;7.232;2022-12-07T09:06:59;16.67;;;11.70;;
33491;SDS011;20010;51.488;7.232;2022-12-07T09:09:26;23.85;;;12.88;;
33491;SDS011;20010;51.488;7.232;2022-12-07T09:11:52;21.17;;;11.77;;
33491;SDS011;20010;51.488;7.232;2022-12-07T09:14:19;18.77;;;12.10;;
33491;SDS011;20010;51.488;7.232;2022-12-07T09:16:46;16.30;;;11.82;;
33491;SDS011;20010;51.488;7.232;2022-12-07T09:19:13;15.77;;;10.63;;
33491;SDS011;20010;51.488;7.232;2022-12-07T09:21:39;15.93;;;11.85;;
33491;SDS011;20010;51.488;7.232;2022-12-07T09:24:06;13.93;;;10.85;;
33491;SDS011;20010;51.488;7.232;2022-12-07T09:26:35;15.80;;;11.02;;
33491;SDS011;20010;51.488;7.232;2022-12-07T09:29:02;18.60;;;11.73;;
33491;SDS011;20010;51.488;7.232;2022-12-07T09:31:29;19.45;;;12.15;;
33491;SDS011;20010;51.488;7.232;2022-12-07T09:33:57;18.98;;;12.32;;
33491;SDS011;20010;51.488;7.232;2022-12-07T09:36:25;13.55;;;10.40;;
33491;SDS011;20010;51.488;7.232;2022-12-07T09:38:53;15.68;;;11.10;;
33491;SDS011;20010;51.488;7.232;2022-12-07T09:41:21;19.92;;;12.18;;
33491;SDS011;20010;51.488;7.232;2022-12-07T09:43:49;16.92;;;12.65;;
33491;SDS011;20010;51.488;7.232;2022-12-07T09:46:16;18.88;;;12.82;;
33491;SDS011;20010;51.488;7.232;2022-12-07T09:48:45;15.00;;;12.38;;
33491;SDS011;20010;51.488;7.232;2022-12-07T09:51:22;15.43;;;13.02;;
33491;SDS011;20010;51.488;7.232;2022-12-07T09:53:52;15.20;;;12.25;;
33491;SDS011;20010;51.488;7.232;2022-12-07T09:56:20;19.92;;;12.40;;
33491;SDS011;20010;51.488;7.232;2022-12-07T09:58:49;15.30;;;11.65;;
33491;SDS011;20010;51.488;7.232;2022-12-07T10:01:21;15.20;;;11.35;;
33491;SDS011;20010;51.488;7.232;2022-12-07T10:03:50;14.07;;;12.23;;
33491;SDS011;20010;51.488;7.232;2022-12-07T10:06:19;13.88;;;10.75;;
33491;SDS011;20010;51.488;7.232;2022-12-07T10:08:46;17.50;;;12.25;;
33491;SDS011;20010;51.488;7.232;2022-12-07T10:11:13;16.90;;;11.02;;
33491;SDS011;20010;51.488;7.232;2022-12-07T10:13:43;13.50;;;11.23;;
33491;SDS011;20010;51.488;7.232;2022-12-07T10:19:16;15.60;;;11.15;;
33491;SDS011;20010;51.488;7.232;2022-12-07T10:21:58;17.70;;;10.18;;
33491;SDS011;20010;51.488;7.232;2022-12-07T10:24:36;19.05;;;9.70;;
33491;SDS011;20010;51.488;7.232;2022-12-07T10:29:56;18.58;;;11.35;;
33491;SDS011;20010;51.488;7.232;2022-12-07T10:32:31;13.90;;;9.43;;
33491;SDS011;20010;51.488;7.232;2022-12-07T10:37:51;15.32;;;9.00;;
33491;SDS011;20010;51.488;7.232;2022-12-07T10:40:27;18.42;;;9.32;;
33491;SDS011;20010;51.488;7.232;2022-12-07T10:53:55;16.95;;;12.13;;
33491;SDS011;20010;51.488;7.232;2022-12-07T10:56:46;17.30;;;9.35;;
33491;SDS011;20010;51.488;7.232;2022-12-07T11:05:15;14.05;;;9.60;;
33491;SDS011;20010;51.488;7.232;2022-12-07T11:08:03;15.07;;;9.57;;
33491;SDS011;20010;51.488;7.232;2022-12-07T11:10:50;18.88;;;9.98;;
33491;SDS011;20010;51.488;7.232;2022-12-07T11:22:00;17.88;;;9.20;;
33491;SDS011;20010;51.488;7.232;2022-12-07T11:25:13;11.60;;;10.07;;
33491;SDS011;20010;51.488;7.232;2022-12-07T11:27:44;14.63;;;9.43;;
33491;SDS011;20010;51.488;7.232;2022-12-07T11:30:32;13.32;;;8.57;;
33491;SDS011;20010;51.488;7.232;2022-12-07T11:33:15;13.57;;;8.65;;
33491;SDS011;20010;51.488;7.232;2022-12-07T11:36:02;10.38;;;7.78;;
33491;SDS011;20010;51.488;7.232;2022-12-07T11:38:47;13.57;;;6.65;;
33491;SDS011;20010;51.488;7.232;2022-12-07T11:41:21;11.07;;;8.13;;
33491;SDS011;20010;51.488;7.232;2022-12-07T11:43:54;9.15;;;6.50;;
33491;SDS011;20010;51.488;7.232;2022-12-07T11:46:25;8.32;;;5.85;;
33491;SDS011;20010;51.488;7.232;2022-12-07T11:49:00;11.32;;;7.25;;
33491;SDS011;20010;51.488;7.232;2022-12-07T11:51:34;11.00;;;5.80;;
33491;SDS011;20010;51.488;7.232;2022-12-07T11:54:21;7.50;;;5.82;;
33491;SDS011;20010;51.488;7.232;2022-12-07T11:56:53;15.68;;;8.65;;
33491;SDS011;20010;51.488;7.232;2022-12-07T11:59:32;6.22;;;5.55;;
33491;SDS011;20010;51.488;7.232;2022-12-07T12:02:16;13.63;;;7.60;;
33491;SDS011;20010;51.488;7.232;2022-12-07T12:04:58;6.70;;;5.85;;
33491;SDS011;20010;51.488;7.232;2022-12-07T12:07:37;7.70;;;5.90;;
33491;SDS011;20010;51.488;7.232;2022-12-07T12:21:31;8.57;;;6.25;;
33491;SDS011;20010;51.488;7.232;2022-12-07T12:24:32;9.50;;;5.50;;
33491;SDS011;20010;51.488;7.232;2022-12-07T12:27:05;6.95;;;5.35;;
33491;SDS011;20010;51.488;7.232;2022-12-07T12:32:12;8.70;;;4.88;;
33491;SDS011;20010;51.488;7.232;2022-12-07T12:37:47;5.53;;;4.88;;
33491;SDS011;20010;51.488;7.232;2022-12-07T12:47:55;9.00;;;5.82;;
33491;SDS011;20010;51.488;7.232;2022-12-07T12:50:28;9.23;;;5.40;;
33491;SDS011;20010;51.488;7.232;2022-12-07T12:53:12;7.43;;;4.95;;
33491;SDS011;20010;51.488;7.232;2022-12-07T12:58:34;7.25;;;5.22;;
33491;SDS011;20010;51.488;7.232;2022-12-07T13:04:18;11.05;;;6.00;;
33491;SDS011;20010;51.488;7.232;2022-12-07T13:06:53;6.95;;;5.15;;
33491;SDS011;20010;51.488;7.232;2022-12-07T13:09:21;7.72;;;4.93;;
33491;SDS011;20010;51.488;7.232;2022-12-07T13:12:01;6.65;;;4.43;;
33491;SDS011;20010;51.488;7.232;2022-12-07T13:17:10;10.38;;;4.95;;
33491;SDS011;20010;51.488;7.232;2022-12-07T13:19:58;7.00;;;5.82;;
33491;SDS011;20010;51.488;7.232;2022-12-07T13:24:57;8.80;;;5.03;;
33491;SDS011;20010;51.488;7.232;2022-12-07T13:27:34;7.13;;;4.95;;
33491;SDS011;20010;51.488;7.232;2022-12-07T13:30:18;6.85;;;4.82;;
33491;SDS011;20010;51.488;7.232;2022-12-07T13:32:54;7.82;;;4.88;;
33491;SDS011;20010;51.488;7.232;2022-12-07T13:35:26;6.75;;;5.10;;
33491;SDS011;20010;51.488;7.232;2022-12-07T13:38:05;6.75;;;4.68;;
33491;SDS011;20010;51.488;7.232;2022-12-07T13:40:42;6.88;;;5.50;;
33491;SDS011;20010;51.488;7.232;2022-12-07T13:43:25;9.73;;;5.82;;
33491;SDS011;20010;51.488;7.232;2022-12-07T13:45:58;6.40;;;5.50;;
33491;SDS011;20010;51.488;7.232;2022-12-07T13:48:31;7.18;;;5.28;;
33491;SDS011;20010;51.488;7.232;2022-12-07T13:51:01;8.98;;;5.38;;
33491;SDS011;20010;51.488;7.232;2022-12-07T13:53:30;9.95;;;5.50;;
33491;SDS011;20010;51.488;7.232;2022-12-07T13:55:57;8.80;;;5.68;;
33491;SDS011;20010;51.488;7.232;2022-12-07T13:58:26;12.63;;;5.70;;
33491;SDS011;20010;51.488;7.232;2022-12-07T14:00:56;11.23;;;5.80;;
33491;SDS011;20010;51.488;7.232;2022-12-07T14:03:27;6.97;;;6.03;;
33491;SDS011;20010;51.488;7.232;2022-12-07T14:06:06;8.23;;;5.05;;
33491;SDS011;20010;51.488;7.232;2022-12-07T14:08:43;12.70;;;6.07;;
33491;SDS011;20010;51.488;7.232;2022-12-07T14:11:17;5.00;;;4.35;;
33491;SDS011;20010;51.488;7.232;2022-12-07T14:19:01;6.20;;;4.10;;
33491;SDS011;20010;51.488;7.232;2022-12-07T14:21:47;4.53;;;4.13;;
33491;SDS011;20010;51.488;7.232;2022-12-07T14:24:19;5.10;;;4.35;;
33491;SDS011;20010;51.488;7.232;2022-12-07T14:26:47;6.63;;;5.00;;
33491;SDS011;20010;51.488;7.232;2022-12-07T14:29:20;5.20;;;4.72;;
33491;SDS011;20010;51.488;7.232;2022-12-07T14:31:54;6.95;;;5.15;;
33491;SDS011;20010;51.488;7.232;2022-12-07T14:34:22;5.38;;;4.88;;
33491;SDS011;20010;51.488;7.232;2022-12-07T14:36:49;5.80;;;4.95;;
33491;SDS011;20010;51.488;7.232;2022-12-07T14:39:16;8.35;;;5.20;;
33491;SDS011;20010;51.488;7.232;2022-12-07T14:41:43;8.13;;;5.80;;
33491;SDS011;20010;51.488;7.232;2022-12-07T14:44:16;6.93;;;5.25;;
33491;SDS011;20010;51.488;7.232;2022-12-07T14:46:50;6.65;;;5.50;;
33491;SDS011;20010;51.488;7.232;2022-12-07T14:49:37;7.45;;;5.38;;
33491;SDS011;20010;51.488;7.232;2022-12-07T14:52:05;7.10;;;5.88;;
33491;SDS011;20010;51.488;7.232;2022-12-07T14:54:57;10.05;;;6.38;;
33491;SDS011;20010;51.488;7.232;2022-12-07T14:57:24;9.10;;;7.25;;
33491;SDS011;20010;51.488;7.232;2022-12-07T14:59:51;10.23;;;7.63;;
33491;SDS011;20010;51.488;7.232;2022-12-07T15:02:18;8.02;;;6.47;;
33491;SDS011;20010;51.488;7.232;2022-12-07T15:04:44;10.55;;;7.43;;
33491;SDS011;20010;51.488;7.232;2022-12-07T15:07:17;8.57;;;6.65;;
33491;SDS011;20010;51.488;7.232;2022-12-07T15:09:46;8.10;;;6.63;;
33491;SDS011;20010;51.488;7.232;2022-12-07T15:12:13;7.00;;;6.13;;
33491;SDS011;20010;51.488;7.232;2022-12-07T15:14:41;15.20;;;6.47;;
33491;SDS011;20010;51.488;7.232;2022-12-07T15:17:09;8.95;;;6.55;;
33491;SDS011;20010;51.488;7.232;2022-12-07T15:19:53;11.25;;;7.75;;
33491;SDS011;20010;51.488;7.232;2022-12-07T15:22:19;9.13;;;6.70;;
33491;SDS011;20010;51.488;7.232;2022-12-07T15:24:46;9.57;;;6.65;;
33491;SDS011;20010;51.488;7.232;2022-12-07T15:27:13;13.27;;;7.38;;
33491;SDS011;20010;51.488;7.232;2022-12-07T15:29:40;12.88;;;7.10;;
33491;SDS011;20010;51.488;7.232;2022-12-07T15:32:07;15.05;;;7.82;;
33491;SDS011;20010;51.488;7.232;2022-12-07T15:34:33;10.60;;;7.60;;
33491;SDS011;20010;51.488;7.232;2022-12-07T15:37:06;11.70;;;7.90;;
33491;SDS011;20010;51.488;7.232;2022-12-07T15:39:34;11.23;;;7.50;;
33491;SDS011;20010;51.488;7.232;2022-12-07T15:42:02;14.13;;;8.70;;
33491;SDS011;20010;51.488;7.232;2022-12-07T15:44:29;16.90;;;8.50;;
33491;SDS011;20010;51.488;7.232;2022-12-07T15:47:14;17.55;;;9.23;;
33491;SDS011;20010;51.488;7.232;2022-12-07T15:49:41;10.85;;;7.53;;
33491;SDS011;20010;51.488;7.232;2022-12-07T15:52:08;19.05;;;8.90;;
33491;SDS011;20010;51.488;7.232;2022-12-07T15:54:35;12.43;;;8.10;;
33491;SDS011;20010;51.488;7.232;2022-12-07T15:57:02;10.88;;;8.18;;
33491;SDS011;20010;51.488;7.232;2022-12-07T15:59:29;11.38;;;7.75;;
33491;SDS011;20010;51.488;7.232;2022-12-07T16:01:56;10.70;;;8.00;;
33491;SDS011;20010;51.488;7.232;2022-12-07T16:04:24;13.50;;;8.52;;
33491;SDS011;20010;51.488;7.232;2022-12-07T16:06:53;10.50;;;7.30;;
33491;SDS011;20010;51.488;7.232;2022-12-07T16:09:20;11.85;;;7.90;;
33491;SDS011;20010;51.488;7.232;2022-12-07T16:11:47;11.82;;;7.78;;
33491;SDS011;20010;51.488;7.232;2022-12-07T16:14:16;15.23;;;7.07;;
33491;SDS011;20010;51.488;7.232;2022-12-07T16:16:43;8.48;;;7.07;;
33491;SDS011;20010;51.488;7.232;2022-12-07T16:19:10;10.93;;;7.63;;
33491;SDS011;20010;51.488;7.232;2022-12-07T16:21:37;16.30;;;7.50;;
33491;SDS011;20010;51.488;7.232;2022-12-07T16:24:04;14.30;;;6.97;;
33491;SDS011;20010;51.488;7.232;2022-12-07T16:26:31;10.23;;;8.05;;
33491;SDS011;20010;51.488;7.232;2022-12-07T16:28:58;11.50;;;7.57;;
33491;SDS011;20010;51.488;7.232;2022-12-07T16:31:26;10.32;;;7.75;;
33491;SDS011;20010;51.488;7.232;2022-12-07T16:33:54;10.50;;;7.97;;
33491;SDS011;20010;51.488;7.232;2022-12-07T16:36:23;13.38;;;9.27;;
33491;SDS011;20010;51.488;7.232;2022-12-07T16:39:12;14.98;;;8.65;;
33491;SDS011;20010;51.488;7.232;2022-12-07T16:41:39;11.38;;;7.68;;
33491;SDS011;20010;51.488;7.232;2022-12-07T16:44:06;9.98;;;8.80;;